sensor_id;sensor_type;location;lat;lon;timestamp;pressure;altitude;pressure_sealevel;temperature;humidity
65872;BME280;52653;50.080;21.992;2023-04-09T00:02:33;99752.55;;;1.22;90.62
65872;BME280;52653;50.080;21.992;2023-04-09T00:05:07;99752.77;;;1.18;90.49
65872;BME280;52653;50.080;21.992;2023-04-09T00:07:51;99747.67;;;1.16;90.67
65872;BME280;52653;50.080;21.992;2023-04-09T00:10:34;99748.79;;;1.14;90.90
65872;BME280;52653;50.080;21.992;2023-04-09T00:13:27;99748.77;;;1.13;91.04
65872;BME280;52653;50.080;21.992;2023-04-09T00:16:23;99753.21;;;1.16;91.52
65872;BME280;52653;50.080;21.992;2023-04-09T00:19:16;99759.23;;;1.21;91.48
65872;BME280;52653;50.080;21.992;2023-04-09T00:22:09;99757.17;;;1.26;91.75
65872;BME280;52653;50.080;21.992;2023-04-09T00:25:02;99758.83;;;1.33;91.82
65872;BME280;52653;50.080;21.992;2023-04-09T00:27:44;99759.56;;;1.38;91.74
65872;BME280;52653;50.080;21.992;2023-04-09T00:30:37;99755.02;;;1.37;91.04
65872;BME280;52653;50.080;21.992;2023-04-09T00:33:20;99754.39;;;1.34;91.02
65872;BME280;52653;50.080;21.992;2023-04-09T00:36:12;99752.48;;;1.29;90.98
65872;BME280;52653;50.080;21.992;2023-04-09T00:38:46;99752.76;;;1.27;91.13
65872;BME280;52653;50.080;21.992;2023-04-09T00:41:19;99754.91;;;1.25;91.19
65872;BME280;52653;50.080;21.992;2023-04-09T00:43:57;99751.83;;;1.22;91.09
65872;BME280;52653;50.080;21.992;2023-04-09T00:46:31;99750.98;;;1.22;91.46
65872;BME280;52653;50.080;21.992;2023-04-09T00:49:04;99749.97;;;1.23;91.56
65872;BME280;52653;50.080;21.992;2023-04-09T00:51:37;99746.15;;;1.22;91.59
65872;BME280;52653;50.080;21.992;2023-04-09T00:54:11;99747.80;;;1.25;92.14
65872;BME280;52653;50.080;21.992;2023-04-09T00:56:44;99750.02;;;1.28;92.35
65872;BME280;52653;50.080;21.992;2023-04-09T00:59:16;99747.27;;;1.33;92.55
65872;BME280;52653;50.080;21.992;2023-04-09T01:01:52;99747.91;;;1.37;92.63
65872;BME280;52653;50.080;21.992;2023-04-09T01:04:27;99749.26;;;1.40;92.57
65872;BME280;52653;50.080;21.992;2023-04-09T01:07:08;99748.87;;;1.43;92.57
65872;BME280;52653;50.080;21.992;2023-04-09T01:09:53;99745.20;;;1.42;92.11
65872;BME280;52653;50.080;21.992;2023-04-09T01:12:34;99741.56;;;1.38;91.87
65872;BME280;52653;50.080;21.992;2023-04-09T01:15:13;99742.73;;;1.36;92.40
65872;BME280;52653;50.080;21.992;2023-04-09T01:17:51;99742.92;;;1.37;92.47
65872;BME280;52653;50.080;21.992;2023-04-09T01:20:31;99746.13;;;1.40;92.85
65872;BME280;52653;50.080;21.992;2023-04-09T01:23:17;99753.57;;;1.44;93.08
65872;BME280;52653;50.080;21.992;2023-04-09T01:26:02;99752.15;;;1.48;93.07
65872;BME280;52653;50.080;21.992;2023-04-09T01:28:49;99756.50;;;1.54;93.22
65872;BME280;52653;50.080;21.992;2023-04-09T01:31:27;99753.55;;;1.58;93.34
65872;BME280;52653;50.080;21.992;2023-04-09T01:34:01;99754.05;;;1.62;93.21
65872;BME280;52653;50.080;21.992;2023-04-09T01:36:40;99751.87;;;1.64;93.05
65872;BME280;52653;50.080;21.992;2023-04-09T01:39:15;99752.09;;;1.65;92.78
65872;BME280;52653;50.080;21.992;2023-04-09T01:41:50;99752.89;;;1.63;92.46
65872;BME280;52653;50.080;21.992;2023-04-09T01:44:27;99758.06;;;1.63;92.74
65872;BME280;52653;50.080;21.992;2023-04-09T01:47:04;99758.05;;;1.67;93.12
65872;BME280;52653;50.080;21.992;2023-04-09T01:49:41;99757.72;;;1.72;93.16
65872;BME280;52653;50.080;21.992;2023-04-09T01:52:14;99758.21;;;1.76;93.27
65872;BME280;52653;50.080;21.992;2023-04-09T01:54:50;99756.64;;;1.81;93.29
65872;BME280;52653;50.080;21.992;2023-04-09T01:57:23;99756.68;;;1.82;92.80
65872;BME280;52653;50.080;21.992;2023-04-09T01:59:58;99759.87;;;1.84;92.78
65872;BME280;52653;50.080;21.992;2023-04-09T02:02:44;99757.77;;;1.88;92.90
65872;BME280;52653;50.080;21.992;2023-04-09T02:05:19;99759.96;;;1.92;92.79
65872;BME280;52653;50.080;21.992;2023-04-09T02:08:07;99759.94;;;1.96;92.83
65872;BME280;52653;50.080;21.992;2023-04-09T02:10:53;99762.48;;;1.99;92.73
65872;BME280;52653;50.080;21.992;2023-04-09T02:13:31;99767.87;;;2.04;93.18
65872;BME280;52653;50.080;21.992;2023-04-09T02:16:06;99761.98;;;2.10;93.11
65872;BME280;52653;50.080;21.992;2023-04-09T02:18:49;99760.36;;;2.13;92.88
65872;BME280;52653;50.080;21.992;2023-04-09T02:21:25;99762.96;;;2.18;92.95
65872;BME280;52653;50.080;21.992;2023-04-09T02:24:09;99761.03;;;2.22;92.88
65872;BME280;52653;50.080;21.992;2023-04-09T02:26:45;99758.70;;;2.25;92.71
65872;BME280;52653;50.080;21.992;2023-04-09T02:29:18;99757.80;;;2.24;92.18
65872;BME280;52653;50.080;21.992;2023-04-09T02:31:50;99756.01;;;2.22;92.06
65872;BME280;52653;50.080;21.992;2023-04-09T02:34:23;99756.48;;;2.20;91.82
65872;BME280;52653;50.080;21.992;2023-04-09T02:36:59;99754.03;;;2.20;92.04
65872;BME280;52653;50.080;21.992;2023-04-09T02:39:32;99752.96;;;2.19;91.91
65872;BME280;52653;50.080;21.992;2023-04-09T02:42:05;99751.15;;;2.16;91.84
65872;BME280;52653;50.080;21.992;2023-04-09T02:44:38;99752.31;;;2.15;91.79
65872;BME280;52653;50.080;21.992;2023-04-09T02:47:11;99757.36;;;2.16;91.82
65872;BME280;52653;50.080;21.992;2023-04-09T02:49:47;99758.79;;;2.17;91.98
65872;BME280;52653;50.080;21.992;2023-04-09T02:52:30;99757.83;;;2.20;92.36
65872;BME280;52653;50.080;21.992;2023-04-09T02:55:13;99758.71;;;2.20;92.12
65872;BME280;52653;50.080;21.992;2023-04-09T02:58:06;99759.58;;;2.20;92.10
65872;BME280;52653;50.080;21.992;2023-04-09T03:00:49;99761.02;;;2.22;92.22
65872;BME280;52653;50.080;21.992;2023-04-09T03:03:27;99764.01;;;2.23;91.94
65872;BME280;52653;50.080;21.992;2023-04-09T03:06:04;99762.92;;;2.22;91.74
65872;BME280;52653;50.080;21.992;2023-04-09T03:08:41;99761.69;;;2.21;91.72
65872;BME280;52653;50.080;21.992;2023-04-09T03:11:14;99763.88;;;2.24;92.19
65872;BME280;52653;50.080;21.992;2023-04-09T03:13:50;99769.27;;;2.26;92.22
65872;BME280;52653;50.080;21.992;2023-04-09T03:16:25;99770.73;;;2.28;92.17
65872;BME280;52653;50.080;21.992;2023-04-09T03:19:00;99774.27;;;2.29;92.06
65872;BME280;52653;50.080;21.992;2023-04-09T03:21:32;99769.39;;;2.33;92.23
65872;BME280;52653;50.080;21.992;2023-04-09T03:24:06;99767.48;;;2.39;92.73
65872;BME280;52653;50.080;21.992;2023-04-09T03:26:39;99770.20;;;2.47;92.88
65872;BME280;52653;50.080;21.992;2023-04-09T03:29:12;99768.33;;;2.54;93.08
65872;BME280;52653;50.080;21.992;2023-04-09T03:31:58;99768.16;;;2.59;93.02
65872;BME280;52653;50.080;21.992;2023-04-09T03:34:31;99767.15;;;2.65;93.10
65872;BME280;52653;50.080;21.992;2023-04-09T03:37:11;99763.66;;;2.69;92.89
65872;BME280;52653;50.080;21.992;2023-04-09T03:39:44;99761.77;;;2.70;92.44
65872;BME280;52653;50.080;21.992;2023-04-09T03:42:17;99758.36;;;2.72;92.68
65872;BME280;52653;50.080;21.992;2023-04-09T03:44:55;99760.30;;;2.73;92.25
65872;BME280;52653;50.080;21.992;2023-04-09T03:47:35;99760.25;;;2.71;92.26
65872;BME280;52653;50.080;21.992;2023-04-09T03:50:19;99760.19;;;2.69;92.11
65872;BME280;52653;50.080;21.992;2023-04-09T03:52:56;99757.59;;;2.69;92.23
65872;BME280;52653;50.080;21.992;2023-04-09T03:55:28;99760.51;;;2.74;92.69
65872;BME280;52653;50.080;21.992;2023-04-09T03:58:02;99759.12;;;2.79;93.06
65872;BME280;52653;50.080;21.992;2023-04-09T04:00:39;99759.16;;;2.86;93.17
65872;BME280;52653;50.080;21.992;2023-04-09T04:03:24;99761.15;;;2.94;93.32
65872;BME280;52653;50.080;21.992;2023-04-09T04:06:18;99759.64;;;3.02;93.25
65872;BME280;52653;50.080;21.992;2023-04-09T04:08:58;99763.33;;;3.08;93.09
65872;BME280;52653;50.080;21.992;2023-04-09T04:11:38;99759.70;;;3.15;92.89
65872;BME280;52653;50.080;21.992;2023-04-09T04:14:14;99759.69;;;3.19;92.64
65872;BME280;52653;50.080;21.992;2023-04-09T04:16:51;99765.45;;;3.20;92.10
65872;BME280;52653;50.080;21.992;2023-04-09T04:19:44;99769.85;;;3.23;92.25
65872;BME280;52653;50.080;21.992;2023-04-09T04:22:19;99770.20;;;3.29;92.69
65872;BME280;52653;50.080;21.992;2023-04-09T04:24:58;99772.34;;;3.37;92.67
65872;BME280;52653;50.080;21.992;2023-04-09T04:27:35;99775.34;;;3.44;92.64
65872;BME280;52653;50.080;21.992;2023-04-09T04:30:18;99774.45;;;3.49;92.21
65872;BME280;52653;50.080;21.992;2023-04-09T04:32:59;99776.94;;;3.51;91.76
65872;BME280;52653;50.080;21.992;2023-04-09T04:35:38;99783.91;;;3.52;91.79
65872;BME280;52653;50.080;21.992;2023-04-09T04:38:15;99782.52;;;3.58;92.01
65872;BME280;52653;50.080;21.992;2023-04-09T04:40:58;99786.41;;;3.67;92.18
65872;BME280;52653;50.080;21.992;2023-04-09T04:43:42;99788.95;;;3.77;92.33
65872;BME280;52653;50.080;21.992;2023-04-09T04:46:21;99786.83;;;3.87;92.20
65872;BME280;52653;50.080;21.992;2023-04-09T04:48:57;99789.60;;;3.94;91.69
65872;BME280;52653;50.080;21.992;2023-04-09T04:51:31;99786.23;;;4.03;91.96
65872;BME280;52653;50.080;21.992;2023-04-09T04:54:08;99791.67;;;4.18;92.28
65872;BME280;52653;50.080;21.992;2023-04-09T04:56:44;99792.60;;;4.33;92.26
65872;BME280;52653;50.080;21.992;2023-04-09T04:59:41;99788.46;;;4.48;91.96
65872;BME280;52653;50.080;21.992;2023-04-09T05:02:16;99789.34;;;4.61;91.53
65872;BME280;52653;50.080;21.992;2023-04-09T05:05:09;99788.10;;;4.74;91.47
65872;BME280;52653;50.080;21.992;2023-04-09T05:07:50;99793.87;;;4.82;90.58
65872;BME280;52653;50.080;21.992;2023-04-09T05:10:43;99794.20;;;4.89;90.03
65872;BME280;52653;50.080;21.992;2023-04-09T05:13:27;99789.91;;;4.98;89.70
65872;BME280;52653;50.080;21.992;2023-04-09T05:16:00;99788.98;;;5.11;89.61
65872;BME280;52653;50.080;21.992;2023-04-09T05:18:34;99789.52;;;5.19;89.02
65872;BME280;52653;50.080;21.992;2023-04-09T05:21:08;99789.33;;;5.24;88.54
65872;BME280;52653;50.080;21.992;2023-04-09T05:23:43;99786.77;;;5.27;88.17
65872;BME280;52653;50.080;21.992;2023-04-09T05:26:16;99792.91;;;5.38;88.94
65872;BME280;52653;50.080;21.992;2023-04-09T05:28:56;99794.74;;;5.50;89.18
65872;BME280;52653;50.080;21.992;2023-04-09T05:31:28;99798.38;;;5.65;89.20
65872;BME280;52653;50.080;21.992;2023-04-09T05:34:06;99799.44;;;5.82;89.14
65872;BME280;52653;50.080;21.992;2023-04-09T05:36:47;99798.67;;;6.02;88.92
65872;BME280;52653;50.080;21.992;2023-04-09T05:39:24;99798.70;;;6.21;88.63
65872;BME280;52653;50.080;21.992;2023-04-09T05:42:16;99803.40;;;6.40;88.29
65872;BME280;52653;50.080;21.992;2023-04-09T05:45:15;99805.66;;;6.59;87.86
65872;BME280;52653;50.080;21.992;2023-04-09T05:47:51;99806.85;;;6.67;86.28
65872;BME280;52653;50.080;21.992;2023-04-09T05:50:25;99802.20;;;6.71;85.74
65872;BME280;52653;50.080;21.992;2023-04-09T05:53:06;99809.60;;;6.74;85.55
65872;BME280;52653;50.080;21.992;2023-04-09T05:55:42;99811.13;;;6.82;85.61
65872;BME280;52653;50.080;21.992;2023-04-09T05:58:26;99809.21;;;6.93;85.49
65872;BME280;52653;50.080;21.992;2023-04-09T06:01:07;99810.34;;;7.08;85.52
65872;BME280;52653;50.080;21.992;2023-04-09T06:03:43;99810.87;;;7.20;84.79
65872;BME280;52653;50.080;21.992;2023-04-09T06:06:27;99812.55;;;7.39;85.05
65872;BME280;52653;50.080;21.992;2023-04-09T06:09:01;99822.25;;;7.58;84.50
65872;BME280;52653;50.080;21.992;2023-04-09T06:11:40;99823.45;;;7.83;84.47
65872;BME280;52653;50.080;21.992;2023-04-09T06:14:14;99820.73;;;8.02;83.86
65872;BME280;52653;50.080;21.992;2023-04-09T06:16:48;99825.40;;;8.11;82.68
65872;BME280;52653;50.080;21.992;2023-04-09T06:19:22;99825.03;;;8.25;82.89
65872;BME280;52653;50.080;21.992;2023-04-09T06:21:55;99826.83;;;8.43;82.83
65872;BME280;52653;50.080;21.992;2023-04-09T06:24:29;99828.05;;;8.58;82.14
65872;BME280;52653;50.080;21.992;2023-04-09T06:27:02;99826.59;;;8.69;81.37
65872;BME280;52653;50.080;21.992;2023-04-09T06:29:35;99827.15;;;8.74;80.44
65872;BME280;52653;50.080;21.992;2023-04-09T06:32:09;99831.02;;;8.76;79.69
65872;BME280;52653;50.080;21.992;2023-04-09T06:34:44;99832.70;;;8.70;78.34
65872;BME280;52653;50.080;21.992;2023-04-09T06:37:18;99833.91;;;8.66;78.63
65872;BME280;52653;50.080;21.992;2023-04-09T06:39:54;99833.98;;;8.73;78.69
65872;BME280;52653;50.080;21.992;2023-04-09T06:42:32;99833.79;;;8.92;79.06
65872;BME280;52653;50.080;21.992;2023-04-09T06:45:14;99837.66;;;9.13;78.51
65872;BME280;52653;50.080;21.992;2023-04-09T06:47:47;99837.21;;;9.25;77.64
65872;BME280;52653;50.080;21.992;2023-04-09T06:50:20;99837.41;;;9.26;76.57
65872;BME280;52653;50.080;21.992;2023-04-09T06:52:53;99835.90;;;9.13;75.43
65872;BME280;52653;50.080;21.992;2023-04-09T06:55:31;99836.40;;;9.09;76.14
65872;BME280;52653;50.080;21.992;2023-04-09T06:58:04;99837.70;;;9.19;76.86
65872;BME280;52653;50.080;21.992;2023-04-09T07:00:40;99843.19;;;9.27;76.24
65872;BME280;52653;50.080;21.992;2023-04-09T07:03:13;99842.54;;;9.33;76.69
65872;BME280;52653;50.080;21.992;2023-04-09T07:05:48;99848.69;;;9.36;76.15
65872;BME280;52653;50.080;21.992;2023-04-09T07:08:22;99851.62;;;9.31;76.18
65872;BME280;52653;50.080;21.992;2023-04-09T07:10:55;99854.02;;;9.24;76.86
65872;BME280;52653;50.080;21.992;2023-04-09T07:13:28;99857.67;;;9.22;77.00
65872;BME280;52653;50.080;21.992;2023-04-09T07:16:04;99861.10;;;9.14;76.61
65872;BME280;52653;50.080;21.992;2023-04-09T07:18:39;99861.30;;;9.16;77.19
65872;BME280;52653;50.080;21.992;2023-04-09T07:21:12;99861.23;;;9.31;77.41
65872;BME280;52653;50.080;21.992;2023-04-09T07:23:45;99857.55;;;9.51;76.91
65872;BME280;52653;50.080;21.992;2023-04-09T07:26:18;99858.89;;;9.68;76.72
65872;BME280;52653;50.080;21.992;2023-04-09T07:28:53;99861.59;;;9.80;75.50
65872;BME280;52653;50.080;21.992;2023-04-09T07:31:29;99862.38;;;9.95;74.97
65872;BME280;52653;50.080;21.992;2023-04-09T07:34:06;99862.80;;;10.08;74.79
65872;BME280;52653;50.080;21.992;2023-04-09T07:36:41;99863.76;;;10.23;74.73
65872;BME280;52653;50.080;21.992;2023-04-09T07:39:17;99866.98;;;10.34;75.16
65872;BME280;52653;50.080;21.992;2023-04-09T07:41:51;99867.15;;;10.34;74.96
65872;BME280;52653;50.080;21.992;2023-04-09T07:44:24;99868.90;;;10.32;75.03
65872;BME280;52653;50.080;21.992;2023-04-09T07:46:59;99871.70;;;10.33;74.74
65872;BME280;52653;50.080;21.992;2023-04-09T07:49:37;99869.98;;;10.42;74.93
65872;BME280;52653;50.080;21.992;2023-04-09T07:52:10;99874.39;;;10.47;74.37
65872;BME280;52653;50.080;21.992;2023-04-09T07:54:43;99870.85;;;10.40;73.93
65872;BME280;52653;50.080;21.992;2023-04-09T07:57:18;99870.85;;;10.38;74.31
65872;BME280;52653;50.080;21.992;2023-04-09T07:59:51;99870.75;;;10.67;74.88
65872;BME280;52653;50.080;21.992;2023-04-09T08:02:32;99865.20;;;10.89;73.53
65872;BME280;52653;50.080;21.992;2023-04-09T08:05:09;99868.36;;;10.93;73.35
65872;BME280;52653;50.080;21.992;2023-04-09T08:07:42;99870.45;;;11.00;73.26
65872;BME280;52653;50.080;21.992;2023-04-09T08:10:14;99872.23;;;11.06;72.52
65872;BME280;52653;50.080;21.992;2023-04-09T08:12:48;99869.27;;;11.18;72.76
65872;BME280;52653;50.080;21.992;2023-04-09T08:15:21;99870.13;;;11.40;72.92
65872;BME280;52653;50.080;21.992;2023-04-09T08:17:56;99867.30;;;11.65;71.87
65872;BME280;52653;50.080;21.992;2023-04-09T08:20:40;99867.29;;;11.82;71.46
65872;BME280;52653;50.080;21.992;2023-04-09T08:23:24;99865.67;;;12.00;71.03
65872;BME280;52653;50.080;21.992;2023-04-09T08:25:58;99863.15;;;12.19;70.41
65872;BME280;52653;50.080;21.992;2023-04-09T08:28:40;99862.53;;;12.40;70.65
65872;BME280;52653;50.080;21.992;2023-04-09T08:31:23;99861.38;;;12.61;70.48
65872;BME280;52653;50.080;21.992;2023-04-09T08:34:08;99864.18;;;12.62;68.30
65872;BME280;52653;50.080;21.992;2023-04-09T08:36:45;99865.33;;;12.46;67.38
65872;BME280;52653;50.080;21.992;2023-04-09T08:39:34;99868.59;;;12.22;67.18
65872;BME280;52653;50.080;21.992;2023-04-09T08:42:11;99866.31;;;12.17;68.19
65872;BME280;52653;50.080;21.992;2023-04-09T08:44:49;99868.09;;;12.14;68.37
65872;BME280;52653;50.080;21.992;2023-04-09T08:47:24;99863.13;;;12.26;69.15
65872;BME280;52653;50.080;21.992;2023-04-09T08:50:10;99866.77;;;12.38;68.40
65872;BME280;52653;50.080;21.992;2023-04-09T08:52:47;99864.95;;;12.48;68.46
65872;BME280;52653;50.080;21.992;2023-04-09T08:55:28;99862.55;;;12.70;69.37
65872;BME280;52653;50.080;21.992;2023-04-09T08:58:13;99855.64;;;13.04;69.73
65872;BME280;52653;50.080;21.992;2023-04-09T09:00:48;99857.80;;;13.24;68.63
65872;BME280;52653;50.080;21.992;2023-04-09T09:03:32;99859.08;;;13.40;68.16
65872;BME280;52653;50.080;21.992;2023-04-09T09:06:27;99853.91;;;13.46;67.21
65872;BME280;52653;50.080;21.992;2023-04-09T09:09:14;99854.18;;;13.57;67.43
65872;BME280;52653;50.080;21.992;2023-04-09T09:12:08;99853.95;;;13.80;67.33
65872;BME280;52653;50.080;21.992;2023-04-09T09:14:41;99852.71;;;13.97;66.77
65872;BME280;52653;50.080;21.992;2023-04-09T09:17:17;99850.06;;;13.97;65.82
65872;BME280;52653;50.080;21.992;2023-04-09T09:19:52;99848.44;;;13.99;66.26
65872;BME280;52653;50.080;21.992;2023-04-09T09:22:54;99848.50;;;14.10;65.81
65872;BME280;52653;50.080;21.992;2023-04-09T09:25:48;99848.73;;;14.19;65.47
65872;BME280;52653;50.080;21.992;2023-04-09T09:28:34;99847.41;;;14.27;65.28
65872;BME280;52653;50.080;21.992;2023-04-09T09:31:10;99846.37;;;14.26;64.43
65872;BME280;52653;50.080;21.992;2023-04-09T09:33:56;99843.57;;;14.38;65.38
65872;BME280;52653;50.080;21.992;2023-04-09T09:36:35;99841.24;;;14.56;65.46
65872;BME280;52653;50.080;21.992;2023-04-09T09:39:08;99840.20;;;14.68;64.48
65872;BME280;52653;50.080;21.992;2023-04-09T09:41:43;99839.92;;;14.74;64.34
65872;BME280;52653;50.080;21.992;2023-04-09T09:44:31;99837.48;;;14.73;62.53
65872;BME280;52653;50.080;21.992;2023-04-09T09:47:12;99837.77;;;14.51;61.07
65872;BME280;52653;50.080;21.992;2023-04-09T09:49:55;99837.95;;;14.22;61.75
65872;BME280;52653;50.080;21.992;2023-04-09T09:52:39;99836.41;;;14.03;62.24
65872;BME280;52653;50.080;21.992;2023-04-09T09:55:18;99838.35;;;13.87;62.10
65872;BME280;52653;50.080;21.992;2023-04-09T09:57:53;99832.50;;;13.74;62.34
65872;BME280;52653;50.080;21.992;2023-04-09T10:00:48;99832.68;;;13.74;63.36
65872;BME280;52653;50.080;21.992;2023-04-09T10:03:26;99829.20;;;13.87;63.77
65872;BME280;52653;50.080;21.992;2023-04-09T10:06:02;99826.89;;;14.02;63.35
65872;BME280;52653;50.080;21.992;2023-04-09T10:08:41;99829.03;;;14.15;63.18
65872;BME280;52653;50.080;21.992;2023-04-09T10:11:14;99826.36;;;14.31;63.84
65872;BME280;52653;50.080;21.992;2023-04-09T10:13:52;99821.71;;;14.50;63.58
65872;BME280;52653;50.080;21.992;2023-04-09T10:16:30;99822.35;;;14.68;61.63
65872;BME280;52653;50.080;21.992;2023-04-09T10:19:17;99823.77;;;14.80;60.92
65872;BME280;52653;50.080;21.992;2023-04-09T10:21:58;99818.45;;;14.93;60.37
65872;BME280;52653;50.080;21.992;2023-04-09T10:24:39;99818.05;;;15.07;59.04
65872;BME280;52653;50.080;21.992;2023-04-09T10:27:14;99815.86;;;15.22;58.29
65872;BME280;52653;50.080;21.992;2023-04-09T10:29:48;99816.38;;;15.43;56.39
65872;BME280;52653;50.080;21.992;2023-04-09T10:32:23;99815.43;;;15.57;54.23
65872;BME280;52653;50.080;21.992;2023-04-09T10:35:04;99807.81;;;15.78;53.77
65872;BME280;52653;50.080;21.992;2023-04-09T10:37:37;99806.44;;;15.94;53.34
65872;BME280;52653;50.080;21.992;2023-04-09T10:40:19;99804.20;;;16.08;53.93
65872;BME280;52653;50.080;21.992;2023-04-09T10:42:53;99803.31;;;16.17;53.26
65872;BME280;52653;50.080;21.992;2023-04-09T10:45:39;99797.87;;;16.31;51.37
65872;BME280;52653;50.080;21.992;2023-04-09T10:48:19;99800.34;;;16.32;46.35
65872;BME280;52653;50.080;21.992;2023-04-09T10:50:52;99796.92;;;16.34;46.63
65872;BME280;52653;50.080;21.992;2023-04-09T10:53:39;99791.78;;;16.51;46.61
65872;BME280;52653;50.080;21.992;2023-04-09T10:56:16;99792.96;;;16.77;46.85
65872;BME280;52653;50.080;21.992;2023-04-09T10:58:49;99791.21;;;16.84;45.40
65872;BME280;52653;50.080;21.992;2023-04-09T11:01:25;99789.67;;;16.74;45.34
65872;BME280;52653;50.080;21.992;2023-04-09T11:04:16;99787.66;;;16.77;45.89
65872;BME280;52653;50.080;21.992;2023-04-09T11:06:54;99790.66;;;16.85;45.50
65872;BME280;52653;50.080;21.992;2023-04-09T11:09:28;99787.89;;;16.90;44.88
65872;BME280;52653;50.080;21.992;2023-04-09T11:12:00;99789.85;;;16.82;45.22
65872;BME280;52653;50.080;21.992;2023-04-09T11:14:36;99788.08;;;16.74;45.80
65872;BME280;52653;50.080;21.992;2023-04-09T11:17:20;99786.14;;;16.73;45.58
65872;BME280;52653;50.080;21.992;2023-04-09T11:19:56;99788.94;;;16.75;45.60
65872;BME280;52653;50.080;21.992;2023-04-09T11:22:53;99787.36;;;16.66;45.73
65872;BME280;52653;50.080;21.992;2023-04-09T11:25:37;99781.41;;;16.79;47.75
65872;BME280;52653;50.080;21.992;2023-04-09T11:28:14;99781.74;;;17.09;47.39
65872;BME280;52653;50.080;21.992;2023-04-09T11:30:50;99783.86;;;17.30;45.89
65872;BME280;52653;50.080;21.992;2023-04-09T11:33:33;99786.00;;;17.44;45.72
65872;BME280;52653;50.080;21.992;2023-04-09T11:36:06;99786.73;;;17.49;46.38
65872;BME280;52653;50.080;21.992;2023-04-09T11:38:42;99783.86;;;17.57;46.21
65872;BME280;52653;50.080;21.992;2023-04-09T11:41:15;99786.27;;;17.46;43.10
65872;BME280;52653;50.080;21.992;2023-04-09T11:43:52;99787.04;;;17.17;42.00
65872;BME280;52653;50.080;21.992;2023-04-09T11:46:25;99789.58;;;16.93;43.29
65872;BME280;52653;50.080;21.992;2023-04-09T11:49:01;99789.45;;;16.68;43.03
65872;BME280;52653;50.080;21.992;2023-04-09T11:51:37;99793.00;;;16.36;44.03
65872;BME280;52653;50.080;21.992;2023-04-09T11:54:12;99792.52;;;15.99;47.92
65872;BME280;52653;50.080;21.992;2023-04-09T11:56:45;99790.29;;;15.59;50.57
65872;BME280;52653;50.080;21.992;2023-04-09T11:59:30;99792.70;;;15.23;51.47
65872;BME280;52653;50.080;21.992;2023-04-09T12:02:17;99791.19;;;14.85;52.40
65872;BME280;52653;50.080;21.992;2023-04-09T12:05:03;99791.27;;;14.57;53.67
65872;BME280;52653;50.080;21.992;2023-04-09T12:07:37;99791.73;;;14.34;54.77
65872;BME280;52653;50.080;21.992;2023-04-09T12:10:19;99793.86;;;14.20;55.70
65872;BME280;52653;50.080;21.992;2023-04-09T12:13:01;99790.81;;;14.09;56.35
65872;BME280;52653;50.080;21.992;2023-04-09T12:15:36;99789.63;;;14.05;57.27
65872;BME280;52653;50.080;21.992;2023-04-09T12:18:14;99789.27;;;14.05;57.23
65872;BME280;52653;50.080;21.992;2023-04-09T12:20:50;99789.23;;;14.09;57.24
65872;BME280;52653;50.080;21.992;2023-04-09T12:23:23;99790.67;;;14.21;57.69
65872;BME280;52653;50.080;21.992;2023-04-09T12:25:56;99790.50;;;14.35;56.77
65872;BME280;52653;50.080;21.992;2023-04-09T12:28:32;99786.67;;;14.44;55.58
65872;BME280;52653;50.080;21.992;2023-04-09T12:31:15;99788.59;;;14.46;55.22
65872;BME280;52653;50.080;21.992;2023-04-09T12:33:50;99790.23;;;14.41;54.82
65872;BME280;52653;50.080;21.992;2023-04-09T12:36:23;99790.27;;;14.38;54.98
65872;BME280;52653;50.080;21.992;2023-04-09T12:38:57;99788.75;;;14.32;54.86
65872;BME280;52653;50.080;21.992;2023-04-09T12:41:30;99787.36;;;14.31;54.88
65872;BME280;52653;50.080;21.992;2023-04-09T12:44:12;99786.23;;;14.23;54.73
65872;BME280;52653;50.080;21.992;2023-04-09T12:46:45;99782.86;;;14.11;54.96
65872;BME280;52653;50.080;21.992;2023-04-09T12:49:28;99782.21;;;14.06;55.83
65872;BME280;52653;50.080;21.992;2023-04-09T12:52:04;99784.11;;;13.96;55.46
65872;BME280;52653;50.080;21.992;2023-04-09T12:54:36;99785.23;;;13.90;55.92
65872;BME280;52653;50.080;21.992;2023-04-09T12:57:10;99783.02;;;13.86;56.24
65872;BME280;52653;50.080;21.992;2023-04-09T12:59:46;99779.84;;;13.83;55.48
65872;BME280;52653;50.080;21.992;2023-04-09T13:02:20;99778.05;;;13.86;56.10
65872;BME280;52653;50.080;21.992;2023-04-09T13:04:53;99773.95;;;13.90;55.46
65872;BME280;52653;50.080;21.992;2023-04-09T13:07:28;99773.52;;;13.97;55.68
65872;BME280;52653;50.080;21.992;2023-04-09T13:10:01;99769.67;;;14.07;55.34
65872;BME280;52653;50.080;21.992;2023-04-09T13:12:46;99775.05;;;14.27;52.95
65872;BME280;52653;50.080;21.992;2023-04-09T13:15:19;99768.21;;;14.51;52.21
65872;BME280;52653;50.080;21.992;2023-04-09T13:17:52;99768.87;;;14.79;51.97
65872;BME280;52653;50.080;21.992;2023-04-09T13:20:24;99764.04;;;14.94;50.95
65872;BME280;52653;50.080;21.992;2023-04-09T13:22:58;99763.59;;;15.00;50.47
65872;BME280;52653;50.080;21.992;2023-04-09T13:25:31;99758.61;;;15.02;50.80
65872;BME280;52653;50.080;21.992;2023-04-09T13:28:04;99760.77;;;14.99;50.49
65872;BME280;52653;50.080;21.992;2023-04-09T13:30:37;99760.20;;;14.91;49.66
65872;BME280;52653;50.080;21.992;2023-04-09T13:33:12;99765.23;;;14.84;50.13
65872;BME280;52653;50.080;21.992;2023-04-09T13:35:45;99767.42;;;14.81;50.16
65872;BME280;52653;50.080;21.992;2023-04-09T13:38:18;99769.01;;;14.81;50.49
65872;BME280;52653;50.080;21.992;2023-04-09T13:40:53;99762.45;;;14.81;50.76
65872;BME280;52653;50.080;21.992;2023-04-09T13:43:26;99758.73;;;14.82;51.14
65872;BME280;52653;50.080;21.992;2023-04-09T13:46:05;99760.95;;;14.77;50.51
65872;BME280;52653;50.080;21.992;2023-04-09T13:48:38;99764.40;;;14.69;51.32
65872;BME280;52653;50.080;21.992;2023-04-09T13:51:11;99767.14;;;14.65;50.87
65872;BME280;52653;50.080;21.992;2023-04-09T13:53:44;99764.90;;;14.60;51.18